Flight Track Log - Related Links

Times and Time Zones

All times are in EDT time to prevent confusion due to time zone crossing. See the SKW5550 flight status page for this flight to view local times or setup timezone preferences in your user account.

Time Position Orientation Groundspeed Altitude Reporting Facility
EDT Latitude Longitude Course Direction KTS MPH feet Rate Location/Type
Sun 07:56:12 AM 44.5511 -108.9781 North 199 229 6,600  Level Salt Lake Center
Sun 07:57:13 AM 44.6119 -108.9714 North 247 284 8,800 2,083 Climbing Salt Lake Center
Sun 07:58:13 AM 44.6736 -108.9375 21° North 258 297 10,800 1,700 Climbing Salt Lake Center
Sun 07:59:13 AM 44.6561 -108.8364 104° East 280 322 12,200 1,600 Climbing Salt Lake Center
Sun 08:00:13 AM 44.5769 -108.8069 165° South 290 334 14,000 1,600 Climbing Salt Lake Center
Sun 08:01:13 AM 44.4906 -108.7811 168° South 310 357 15,400 1,600 Climbing Salt Lake Center
Sun 08:02:13 AM 44.3989 -108.7533 168° South 327 376 17,200 1,600 Climbing Salt Lake Center
Sun 08:03:13 AM 44.3056 -108.7292 170° South 338 389 18,600 1,339 Climbing Salt Lake Center
Sun 08:04:14 AM 44.2122 -108.7056 170° South 341 392 19,900 1,289 Climbing Salt Lake Center
Sun 08:05:14 AM 44.1161 -108.6744 167° South 351 404 21,200 1,050 Climbing Salt Lake Center
Sun 08:06:14 AM 44.0231 -108.6203 157° South 360 414 22,000 900 Climbing Salt Lake Center
Sun 08:07:14 AM 43.9267 -108.5642 157° South 374 430 23,000 1,050 Climbing Salt Lake Center
Sun 08:08:14 AM 43.8297 -108.5097 158° South 377 434 24,100 942 Climbing Salt Lake Center
Sun 08:09:15 AM 43.7328 -108.4553 158° South 378 435 24,900 893 Climbing Salt Lake Center
Sun 08:10:15 AM 43.6347 -108.3978 157° South 382 440 25,900 900 Climbing Salt Lake Center
Sun 08:11:15 AM 43.5364 -108.3433 158° South 381 438 26,700 750 Climbing Salt Lake Center
Sun 08:12:15 AM 43.4389 -108.2814 155° Southeast 386 444 27,400 595 Climbing Salt Lake Center
Sun 08:13:16 AM 43.3522 -108.1839 141° Southeast 399 459 27,900 645 Climbing Salt Lake Center
Sun 08:14:16 AM 43.2633 -108.0886 142° Southeast 403 464 28,700 700 Climbing Salt Lake Center
Sun 08:15:16 AM 43.1750 -107.9925 142° Southeast 406 467 29,300 550 Climbing Salt Lake Center
Sun 08:16:16 AM 43.0858 -107.8994 143° Southeast 406 467 29,800 595 Climbing Salt Lake Center
Sun 08:17:17 AM 42.9961 -107.8064 143° Southeast 406 467 30,500 595 Climbing Salt Lake Center
Sun 08:18:17 AM 42.8994 -107.7022 142° Southeast 401 461 31,000 250 Climbing Salt Lake Center
Sun 08:19:17 AM 42.8133 -107.6119 142° Southeast 404 465 31,000  Level Salt Lake Center
Sun 08:20:18 AM 42.7250 -107.5150 141° Southeast 416 479 31,000  Level Salt Lake Center
Sun 08:21:18 AM 42.6358 -107.4217 142° Southeast 421 484 31,000  Level Salt Lake Center
Sun 08:22:18 AM 42.5303 -107.3097 142° Southeast 427 491 31,000  Level Salt Lake Center
Sun 08:23:18 AM 42.4386 -107.2122 142° Southeast 432 497 31,000  Level Salt Lake Center
Sun 08:24:19 AM 42.3486 -107.1189 143° Southeast 428 493 31,000  Level Salt Lake Center
Sun 08:25:21 AM 42.2489 -107.0125 142° Southeast 412 474 31,000  Level Denver Center
Sun 08:26:22 AM 42.1658 -106.9256 142° Southeast 400 460 31,000  Level Denver Center
Sun 08:27:22 AM 42.0778 -106.8361 143° Southeast 410 472 31,000  Level Denver Center
Sun 08:28:23 AM 41.9756 -106.7297 142° Southeast 416 479 31,000  Level Denver Center
Sun 08:29:23 AM 41.8853 -106.6369 143° Southeast 424 488 31,000  Level Denver Center
Sun 08:30:24 AM 41.7944 -106.5428 142° Southeast 430 495 31,000 -397 Level Denver Center
Sun 08:31:24 AM 41.6872 -106.4333 143° Southeast 442 509 30,200 -793 Descending Denver Center
Sun 08:32:25 AM 41.5903 -106.3339 142° Southeast 456 525 29,400 -595 Descending Denver Center
Sun 08:33:25 AM 41.4903 -106.2325 143° Southeast 468 539 29,000 -198 Descending Denver Center
Sun 08:34:26 AM 41.3789 -106.1197 143° Southeast 454 522 29,000  Level Denver Center
Sun 08:35:26 AM 41.2839 -106.0258 143° Southeast 447 514 29,000  Level Denver Center
Sun 08:36:27 AM 41.1881 -105.9286 143° Southeast 452 520 29,000  Level Denver Center
Sun 08:37:27 AM 41.0775 -105.8192 143° Southeast 447 514 29,000  Level Denver Center
Sun 08:38:28 AM 40.9767 -105.7192 143° Southeast 447 514 29,000 -934 Level Denver Center
Sun 08:39:29 AM 40.8742 -105.6169 143° Southeast 460 529 27,100 -2,182 Descending Denver Center
Sun 08:40:29 AM 40.7719 -105.5142 143° Southeast 462 532 24,600 -2,479 Descending Denver Center
Sun 08:41:30 AM 40.6758 -105.4194 143° Southeast 436 502 22,100 -2,281 Descending Denver Center
Sun 08:42:30 AM 40.5894 -105.3350 143° Southeast 393 452 20,000 -1,983 Descending Denver Center
Sun 08:43:31 AM 40.5083 -105.2550 143° Southeast 370 426 18,100 -1,636 Descending Denver Center
Sun 08:44:31 AM 40.4647 -105.1419 117° Southeast 357 411 16,700 -1,339 Descending Denver Center
Sun 08:45:32 AM 40.4333 -105.0297 110° East 332 382 15,400 -1,180 Descending Denver Center
Sun 08:46:33 AM 40.4025 -104.9200 110° East 322 371 14,300 -793 Descending Denver Center
Sun 08:47:33 AM 40.3714 -104.8161 111° Southeast 288 331 13,800 -793 Descending Denver Center
Sun 08:48:34 AM 40.3003 -104.7892 164° South 270 311 12,700 -1,190 Descending Denver Center
Sun 08:49:34 AM 40.2306 -104.7686 167° South 259 298 11,400 -1,388 Descending Denver Center
Sun 08:50:35 AM 40.1603 -104.7483 168° South 260 299 9,900 -1,438 Descending Denver Center
Sun 08:51:35 AM 40.0911 -104.7281 167° South 255 293 8,500 -1,041 Descending Denver Center
Sun 08:52:36 AM 40.0294 -104.7097 167° South 229 264 7,800 -787 Descending Denver Center
Sun 08:53:37 AM 39.9778 -104.6967 169° South 193 222 6,900 -843 Descending Denver Center
Sun 08:54:37 AM 39.9331 -104.6953 179° South 157 181 6,100 -793 Descending Denver Center
Sun 08:55:38 AM 39.8914 -104.6961 181° South 151 174 5,300 -787 Descending Denver Center

Login

Don't have an account? Register now (free) for customized features, flight alerts, and more!